createdAt,value
2023-04-23T00:00:26.528Z,11.0
2023-04-23T00:05:29.158Z,11.1
2023-04-23T00:10:18.069Z,11.3
2023-04-23T00:15:24.361Z,11.5
2023-04-23T00:20:30.676Z,11.5
2023-04-23T00:25:19.379Z,11.3
2023-04-23T00:30:25.488Z,11.1
2023-04-23T00:35:31.334Z,11.1
2023-04-23T00:40:22.263Z,11.2
2023-04-23T00:45:26.675Z,11.1
2023-04-23T00:50:32.360Z,11.0
2023-04-23T00:55:20.904Z,11.0
2023-04-23T01:00:29.794Z,11.1
2023-04-23T01:05:33.806Z,11.0
2023-04-23T01:10:21.358Z,11.0
2023-04-23T01:15:27.551Z,11.0
2023-04-23T01:20:17.539Z,11.0
2023-04-23T01:25:22.543Z,10.9
2023-04-23T01:30:28.595Z,10.8
2023-04-23T01:35:17.445Z,10.9
2023-04-23T01:40:25.037Z,10.8
2023-04-23T01:45:29.748Z,10.9
2023-04-23T01:50:18.481Z,10.7
2023-04-23T01:55:24.536Z,10.6
2023-04-23T02:00:36.024Z,10.4
2023-04-23T02:05:19.787Z,10.3
2023-04-23T02:10:25.842Z,10.2
2023-04-23T02:15:32.133Z,10.2
2023-04-23T02:20:22.115Z,10.0
2023-04-23T02:25:27.167Z,10.0
2023-04-23T02:30:33.226Z,9.9
2023-04-23T02:35:22.091Z,9.8
2023-04-23T02:40:28.179Z,9.7
2023-04-23T02:45:17.342Z,9.6
2023-04-23T02:50:23.143Z,9.5
2023-04-23T02:55:29.065Z,9.4
2023-04-23T03:00:19.656Z,9.4
2023-04-23T03:05:23.477Z,9.3
2023-04-23T03:10:29.675Z,9.3
2023-04-23T03:15:18.682Z,9.4
2023-04-23T03:20:25.835Z,9.4
2023-04-23T03:25:30.844Z,9.3
2023-04-23T03:30:19.696Z,9.3
2023-04-23T03:35:25.932Z,9.3
2023-04-23T03:40:31.839Z,9.4
2023-04-23T03:45:21.038Z,9.4
2023-04-23T03:50:26.534Z,9.4
2023-04-23T03:55:32.675Z,9.4
2023-04-23T04:00:25.310Z,9.5
2023-04-23T04:05:28.234Z,9.6
2023-04-23T04:10:17.014Z,9.6
2023-04-23T04:15:23.355Z,9.7
2023-04-23T04:20:29.302Z,9.7
2023-04-23T04:25:18.173Z,9.7
2023-04-23T04:30:24.816Z,9.7
2023-04-23T04:35:30.380Z,9.8
2023-04-23T04:40:20.580Z,9.8
2023-04-23T04:45:25.450Z,10.0
2023-04-23T04:50:31.089Z,10.2
2023-04-23T04:55:19.938Z,10.2
2023-04-23T05:00:28.475Z,10.1
2023-04-23T05:05:31.376Z,10.0
2023-04-23T05:10:20.371Z,10.0
2023-04-23T05:15:26.267Z,10.2
2023-04-23T05:20:32.478Z,10.2
2023-04-23T05:25:21.559Z,10.2
2023-04-23T05:30:27.650Z,10.3
2023-04-23T05:35:16.670Z,10.4
2023-04-23T05:40:22.657Z,10.6
2023-04-23T05:45:28.792Z,10.6
2023-04-23T05:50:17.601Z,10.6
2023-04-23T05:55:23.442Z,10.8
2023-04-23T06:00:31.689Z,10.8
2023-04-23T06:05:19.177Z,10.8
2023-04-23T06:10:24.968Z,11.0
2023-04-23T06:15:30.969Z,11.0
2023-04-23T06:20:21.528Z,11.2
2023-04-23T06:25:26.847Z,11.2
2023-04-23T06:30:32.136Z,11.3
2023-04-23T06:35:21.346Z,11.4
2023-04-23T06:40:27.484Z,11.5
2023-04-23T06:45:33.480Z,11.5
2023-04-23T06:50:21.947Z,11.5
2023-04-23T06:55:27.860Z,11.4
2023-04-23T07:00:17.006Z,11.3
2023-04-23T07:05:22.260Z,11.2
2023-04-23T07:10:31.497Z,11.1
2023-04-23T07:15:17.553Z,11.2
2023-04-23T07:20:24.779Z,11.1
2023-04-23T07:25:29.590Z,11.0
2023-04-23T07:30:18.715Z,11.1
2023-04-23T07:35:24.779Z,11.2
2023-04-23T07:40:30.661Z,11.2
2023-04-23T07:45:20.662Z,11.1
2023-04-23T07:50:25.521Z,11.1
2023-04-23T07:55:31.584Z,11.2
2023-04-23T08:00:23.105Z,11.1
2023-04-23T08:05:26.349Z,11.1
2023-04-23T08:10:32.377Z,10.9
2023-04-23T08:15:21.560Z,11.0
2023-04-23T08:20:27.476Z,11.0
2023-04-23T08:25:16.659Z,11.1
2023-04-23T08:30:22.790Z,11.1
2023-04-23T08:35:28.661Z,11.3
2023-04-23T08:40:19.355Z,11.3
2023-04-23T08:45:23.754Z,11.4
2023-04-23T08:50:30.324Z,11.2
2023-04-23T08:55:19.179Z,11.1
2023-04-23T09:00:27.141Z,11.4
2023-04-23T09:05:30.387Z,11.5
2023-04-23T09:10:19.461Z,11.5
2023-04-23T09:15:25.307Z,11.5
2023-04-23T09:20:31.569Z,11.2
2023-04-23T09:25:20.387Z,11.2
2023-04-23T09:30:26.791Z,11.3
2023-04-23T09:35:32.536Z,11.8
2023-04-23T09:40:23.030Z,11.6
2023-04-23T09:45:27.688Z,12.3
2023-04-23T09:50:16.955Z,12.4
2023-04-23T09:55:22.362Z,12.6
2023-04-23T10:00:34.375Z,12.4
2023-04-23T10:05:24.153Z,12.4
2023-04-23T10:10:24.151Z,12.5
2023-04-23T10:15:30.050Z,12.7
2023-04-23T10:20:21.288Z,12.6
2023-04-23T10:25:25.185Z,12.7
2023-04-23T10:30:31.275Z,12.7
2023-04-23T10:35:20.284Z,12.8
2023-04-23T10:40:26.323Z,12.8
2023-04-23T10:45:32.504Z,12.8
2023-04-23T10:50:20.791Z,12.9
2023-04-23T10:55:27.843Z,12.8
2023-04-23T11:00:32.984Z,12.8
2023-04-23T11:05:21.875Z,12.9
2023-04-23T11:10:27.958Z,12.9
2023-04-23T11:15:17.061Z,12.9
2023-04-23T11:20:24.250Z,13.0
2023-04-23T11:25:29.077Z,12.9
2023-04-23T11:30:17.959Z,13.1
2023-04-23T11:35:24.610Z,13.2
2023-04-23T11:40:30.336Z,13.4
2023-04-23T11:45:19.370Z,13.6
2023-04-23T11:50:25.242Z,13.6
2023-04-23T11:55:31.280Z,13.9
2023-04-23T12:00:24.823Z,14.0
2023-04-23T12:05:26.287Z,13.6
2023-04-23T12:10:32.714Z,13.7
2023-04-23T12:15:21.211Z,14.1
2023-04-23T12:20:27.331Z,14.2
2023-04-23T12:25:33.149Z,14.0
2023-04-23T12:30:22.377Z,13.9
2023-04-23T12:35:28.591Z,13.9
2023-04-23T12:40:17.795Z,14.1
2023-04-23T12:45:23.603Z,14.1
2023-04-23T12:50:29.632Z,14.8
2023-04-23T12:55:18.463Z,14.7
2023-04-23T13:00:26.437Z,15.1
2023-04-23T13:05:31.019Z,15.6
2023-04-23T13:10:19.764Z,15.4
2023-04-23T13:15:27.662Z,15.9
2023-04-23T13:20:32.440Z,16.1
2023-04-23T13:25:21.099Z,15.9
2023-04-23T13:30:27.277Z,15.7
2023-04-23T13:35:33.595Z,16.0
2023-04-23T13:40:22.167Z,15.5
2023-04-23T13:45:28.374Z,15.6
2023-04-23T13:50:17.146Z,15.4
2023-04-23T13:55:23.040Z,15.5
2023-04-23T14:00:32.479Z,15.6
2023-04-23T14:05:17.599Z,15.9
2023-04-23T14:10:23.536Z,15.3
2023-04-23T14:15:29.574Z,15.7
2023-04-23T14:20:20.304Z,16.4
2023-04-23T14:25:24.826Z,16.6
2023-04-23T14:30:31.015Z,16.1
2023-04-23T14:35:26.772Z,16.0
2023-04-23T14:40:27.431Z,15.7
2023-04-23T14:45:32.145Z,16.3
2023-04-23T14:50:20.407Z,16.0
2023-04-23T14:55:26.678Z,15.9
2023-04-23T15:00:33.451Z,16.3
2023-04-23T15:05:21.615Z,16.2
2023-04-23T15:10:27.475Z,15.9
2023-04-23T15:15:16.708Z,15.8
2023-04-23T15:20:24.057Z,15.8
2023-04-23T15:25:28.836Z,15.9
2023-04-23T15:30:17.728Z,16.3
2023-04-23T15:35:24.001Z,16.1
2023-04-23T15:40:30.124Z,16.0
2023-04-23T15:45:19.391Z,16.2
2023-04-23T15:50:24.816Z,16.5
2023-04-23T15:55:31.106Z,16.7
2023-04-23T16:00:26.873Z,16.5
2023-04-23T16:05:25.670Z,16.6
2023-04-23T16:10:31.687Z,16.5
2023-04-23T16:15:20.923Z,16.1
2023-04-23T16:20:27.779Z,16.2
2023-04-23T16:25:33.082Z,16.5
2023-04-23T16:30:22.146Z,16.6
2023-04-23T16:35:28.141Z,16.8
2023-04-23T16:40:17.355Z,16.9
2023-04-23T16:45:23.333Z,16.6
2023-04-23T16:50:29.044Z,16.6
2023-04-23T16:55:17.809Z,16.6
2023-04-23T17:00:25.184Z,16.6
2023-04-23T17:05:30.273Z,16.4
2023-04-23T17:10:19.292Z,16.2
2023-04-23T17:15:25.331Z,16.1
2023-04-23T17:20:31.426Z,15.9
2023-04-23T17:25:20.463Z,15.6
2023-04-23T17:30:26.534Z,15.5
2023-04-23T17:35:32.343Z,15.3
2023-04-23T17:40:22.858Z,15.1
2023-04-23T17:45:27.810Z,14.9
2023-04-23T17:50:33.152Z,14.8
2023-04-23T17:55:22.194Z,14.7
2023-04-23T18:00:30.941Z,14.5
2023-04-23T18:05:16.235Z,14.1
2023-04-23T18:10:22.469Z,13.6
2023-04-23T18:15:28.544Z,13.3
2023-04-23T18:20:17.695Z,13.1
2023-04-23T18:25:23.737Z,12.9
2023-04-23T18:30:29.695Z,12.7
2023-04-23T18:35:18.746Z,12.4
2023-04-23T18:40:25.886Z,12.2
2023-04-23T18:45:30.969Z,11.9
2023-04-23T18:50:19.524Z,11.8
2023-04-23T18:55:25.361Z,11.6
2023-04-23T19:00:31.881Z,11.4
2023-04-23T19:05:20.994Z,11.3
2023-04-23T19:10:27.039Z,11.4
2023-04-23T19:15:34.673Z,11.3
2023-04-23T19:20:23.149Z,11.3
2023-04-23T19:25:28.234Z,11.4
2023-04-23T19:30:17.251Z,11.3
2023-04-23T19:35:23.349Z,11.3
2023-04-23T19:40:29.327Z,11.4
2023-04-23T19:45:18.452Z,11.2
2023-04-23T19:50:23.971Z,11.0
2023-04-23T19:55:30.077Z,10.9
2023-04-23T20:00:21.811Z,10.9
2023-04-23T20:05:24.474Z,10.8
2023-04-23T20:10:30.577Z,10.7
2023-04-23T20:15:19.566Z,10.8
2023-04-23T20:20:25.749Z,10.8
2023-04-23T20:25:31.678Z,11.1
2023-04-23T20:30:20.721Z,11.1
2023-04-23T20:35:26.619Z,10.4
2023-04-23T20:40:32.882Z,10.1
2023-04-23T20:45:21.919Z,9.9
2023-04-23T20:50:27.756Z,9.8
2023-04-23T20:55:16.559Z,9.7
2023-04-23T21:00:23.884Z,9.7
2023-04-23T21:05:29.059Z,9.7
2023-04-23T21:10:18.166Z,9.8
2023-04-23T21:15:24.355Z,9.8
2023-04-23T21:20:30.323Z,9.8
2023-04-23T21:25:19.298Z,9.6
2023-04-23T21:30:25.548Z,9.6
2023-04-23T21:35:31.705Z,9.6
2023-04-23T21:40:21.680Z,9.5
2023-04-23T21:45:26.761Z,9.4
2023-04-23T21:50:32.233Z,9.4
2023-04-23T21:55:21.122Z,9.3
2023-04-23T22:00:31.015Z,9.2
2023-04-23T22:05:32.771Z,9.2
2023-04-23T22:10:21.492Z,9.3
2023-04-23T22:15:29.062Z,9.3
2023-04-23T22:20:16.639Z,9.2
2023-04-23T22:25:23.240Z,9.2
2023-04-23T22:30:28.905Z,9.2
2023-04-23T22:35:17.891Z,9.2
2023-04-23T22:40:25.414Z,9.2
2023-04-23T22:45:29.983Z,9.2
2023-04-23T22:50:18.596Z,9.1
2023-04-23T22:55:24.899Z,9.1
2023-04-23T23:00:31.065Z,9.1
2023-04-23T23:05:20.301Z,9.0
2023-04-23T23:10:26.084Z,9.0
2023-04-23T23:15:32.413Z,9.0
2023-04-23T23:20:22.568Z,9.0
2023-04-23T23:25:27.440Z,9.0
2023-04-23T23:30:33.546Z,9.1
2023-04-23T23:35:22.557Z,9.2
2023-04-23T23:40:28.649Z,9.2
2023-04-23T23:45:17.480Z,9.2
2023-04-23T23:50:23.355Z,9.2
2023-04-23T23:55:29.401Z,9.1
